Time;durP1;ratioP1;P1;durP2;ratioP2;P2;SDS_P1;SDS_P2;PMS_P1;PMS_P2;Temp;Humidity;BMP_temperature;BMP_pressure;BME280_temperature;BME280_humidity;BME280_pressure;Samples;Min_cycle;Max_cycle;Signal;HPM_P1;HPM_P2
2023/12/11 00:00:41;;;;;;;12.23;2.40;;;;;;;;;;4993695;28;20042;-50
2023/12/11 00:03:10;;;;;;;18.70;2.73;;;;;;;;;;4996654;28;20780;-49
2023/12/11 00:05:38;;;;;;;18.80;2.35;;;;;;;;;;4998545;28;20123;-50
2023/12/11 00:08:07;;;;;;;20.80;3.33;;;;;;;;;;5001479;28;20088;-53
2023/12/11 00:10:35;;;;;;;22.13;2.65;;;;;;;;;;4978566;28;20120;-50
2023/12/11 00:13:04;;;;;;;20.23;2.25;;;;;;;;;;5002368;28;20092;-51
2023/12/11 00:15:32;;;;;;;21.40;3.43;;;;;;;;;;4980830;28;20152;-51
2023/12/11 00:18:01;;;;;;;25.90;3.67;;;;;;;;;;4999560;28;20041;-53
2023/12/11 00:20:32;;;;;;;21.00;2.92;;;;;;;;;;4971430;28;20120;-51
2023/12/11 00:23:00;;;;;;;18.20;2.45;;;;;;;;;;4998999;28;20045;-49
2023/12/11 00:25:27;;;;;;;22.00;3.17;;;;;;;;;;4990833;28;20048;-52
2023/12/11 00:27:55;;;;;;;23.63;2.63;;;;;;;;;;4992671;28;20045;-50
2023/12/11 00:30:23;;;;;;;18.67;2.65;;;;;;;;;;4988032;28;20899;-51
2023/12/11 00:32:51;;;;;;;24.00;2.75;;;;;;;;;;4999723;28;20413;-47
2023/12/11 00:35:20;;;;;;;17.25;1.90;;;;;;;;;;4991028;28;20038;-50
2023/12/11 00:37:50;;;;;;;14.82;2.22;;;;;;;;;;4991825;28;20065;-51
2023/12/11 00:40:18;;;;;;;11.77;1.43;;;;;;;;;;4997576;28;20041;-49
2023/12/11 00:42:46;;;;;;;13.60;1.70;;;;;;;;;;4992154;28;20041;-51
2023/12/11 00:45:14;;;;;;;15.10;2.28;;;;;;;;;;5015714;28;20037;-52
2023/12/11 00:47:41;;;;;;;15.95;2.30;;;;;;;;;;4991040;28;20068;-53
2023/12/11 00:50:10;;;;;;;17.70;2.00;;;;;;;;;;5001825;28;20065;-47
2023/12/11 00:52:39;;;;;;;11.33;2.03;;;;;;;;;;4986544;28;20812;-53
2023/12/11 00:55:07;;;;;;;12.88;1.67;;;;;;;;;;4990102;28;20041;-53
2023/12/11 00:57:35;;;;;;;21.27;2.95;;;;;;;;;;4988771;28;20046;-54
2023/12/11 01:00:03;;;;;;;20.55;2.03;;;;;;;;;;4994901;28;20061;-48
2023/12/11 01:02:31;;;;;;;10.82;1.90;;;;;;;;;;4996095;28;20095;-48
2023/12/11 01:04:59;;;;;;;12.50;1.73;;;;;;;;;;4987382;28;20499;-50
2023/12/11 01:07:27;;;;;;;20.63;2.95;;;;;;;;;;4985301;28;20034;-48
2023/12/11 01:09:56;;;;;;;17.23;1.90;;;;;;;;;;5005013;28;20049;-52
2023/12/11 01:12:27;;;;;;;13.20;1.88;;;;;;;;;;5010398;28;20656;-52
2023/12/11 01:14:55;;;;;;;16.13;1.75;;;;;;;;;;4992633;28;20480;-48
2023/12/11 01:17:22;;;;;;;16.93;2.80;;;;;;;;;;5008713;28;20042;-51
2023/12/11 01:20:07;;;;;;;19.08;2.17;;;;;;;;;;4979962;28;20134;-47
2023/12/11 01:22:35;;;;;;;13.60;2.38;;;;;;;;;;4991139;28;20561;-50
2023/12/11 01:25:05;;;;;;;12.07;2.30;;;;;;;;;;4994211;28;20637;-53
2023/12/11 01:27:33;;;;;;;17.00;1.75;;;;;;;;;;4979310;28;21188;-48
2023/12/11 01:30:01;;;;;;;19.73;4.03;;;;;;;;;;4997500;28;20717;-49
2023/12/11 01:32:28;;;;;;;20.33;2.83;;;;;;;;;;4997045;28;20049;-50
2023/12/11 01:34:56;;;;;;;20.10;3.15;;;;;;;;;;5002576;28;20048;-51
2023/12/11 01:37:24;;;;;;;24.65;2.38;;;;;;;;;;4989565;28;20041;-50
2023/12/11 01:39:52;;;;;;;20.38;2.13;;;;;;;;;;4991868;28;20041;-48
2023/12/11 01:42:21;;;;;;;10.83;1.70;;;;;;;;;;4995274;28;20511;-50
2023/12/11 01:44:49;;;;;;;13.15;1.70;;;;;;;;;;4999976;28;20047;-50
2023/12/11 01:47:21;;;;;;;16.90;1.75;;;;;;;;;;4989367;28;20041;-47
2023/12/11 01:49:49;;;;;;;13.00;2.00;;;;;;;;;;5001248;28;20057;-51
2023/12/11 01:52:19;;;;;;;15.07;1.98;;;;;;;;;;4999708;28;20046;-53
2023/12/11 01:54:47;;;;;;;18.47;2.73;;;;;;;;;;4989779;28;20045;-53
2023/12/11 01:57:14;;;;;;;13.40;2.28;;;;;;;;;;5006034;28;20107;-47
2023/12/11 01:59:44;;;;;;;20.80;2.03;;;;;;;;;;4981042;28;20052;-51
2023/12/11 02:02:16;;;;;;;20.70;2.42;;;;;;;;;;5003968;28;20136;-50
2023/12/11 02:04:44;;;;;;;15.02;2.08;;;;;;;;;;4991185;28;20053;-48
2023/12/11 02:07:12;;;;;;;24.07;2.87;;;;;;;;;;4996967;28;21513;-48
2023/12/11 02:09:40;;;;;;;22.00;2.47;;;;;;;;;;4998545;28;20499;-50
2023/12/11 02:12:08;;;;;;;18.10;2.50;;;;;;;;;;4992979;28;20111;-48
2023/12/11 02:14:36;;;;;;;22.17;3.30;;;;;;;;;;4992373;28;20511;-51
2023/12/11 02:17:09;;;;;;;12.43;1.77;;;;;;;;;;5006873;28;20041;-48
2023/12/11 02:19:37;;;;;;;23.57;3.60;;;;;;;;;;4996537;28;20056;-49
2023/12/11 02:22:05;;;;;;;15.93;1.95;;;;;;;;;;4984230;28;20046;-47
2023/12/11 02:24:34;;;;;;;25.08;3.28;;;;;;;;;;4997954;28;20125;-54
2023/12/11 02:27:03;;;;;;;20.38;1.88;;;;;;;;;;5001452;28;20045;-50
2023/12/11 02:29:31;;;;;;;13.18;1.70;;;;;;;;;;4996648;28;20572;-53
2023/12/11 02:31:59;;;;;;;20.57;2.20;;;;;;;;;;5003982;28;20052;-48
2023/12/11 02:34:27;;;;;;;13.55;2.30;;;;;;;;;;4968780;28;20827;-47
2023/12/11 02:36:55;;;;;;;17.85;2.22;;;;;;;;;;5011429;28;20041;-51
2023/12/11 02:39:23;;;;;;;17.85;2.00;;;;;;;;;;4991054;28;20479;-49
2023/12/11 02:41:49;;;;;;;23.00;2.97;;;;;;;;;;4986848;28;20045;-52
2023/12/11 02:44:18;;;;;;;20.00;2.53;;;;;;;;;;4986857;28;20474;-51
2023/12/11 02:46:46;;;;;;;10.50;1.88;;;;;;;;;;5004308;28;20036;-48
2023/12/11 02:49:14;;;;;;;18.38;2.80;;;;;;;;;;4991098;28;20560;-49
2023/12/11 02:51:42;;;;;;;16.80;2.47;;;;;;;;;;5001376;28;20041;-48
2023/12/11 02:54:14;;;;;;;22.85;2.70;;;;;;;;;;4983563;28;20515;-51
2023/12/11 02:56:41;;;;;;;21.60;2.23;;;;;;;;;;5001245;28;20491;-50
2023/12/11 02:59:09;;;;;;;21.90;2.35;;;;;;;;;;4998388;28;20038;-50
2023/12/11 03:01:39;;;;;;;14.48;1.90;;;;;;;;;;4994831;28;20037;-53
2023/12/11 03:04:07;;;;;;;21.55;2.65;;;;;;;;;;5005935;28;20037;-52
2023/12/11 03:06:40;;;;;;;13.77;1.77;;;;;;;;;;5005553;28;20132;-49
2023/12/11 03:09:09;;;;;;;19.63;2.43;;;;;;;;;;4997497;28;20052;-51
2023/12/11 03:11:36;;;;;;;17.45;2.40;;;;;;;;;;4996234;28;20042;-50
2023/12/11 03:14:04;;;;;;;14.43;2.95;;;;;;;;;;4987128;28;20086;-48
2023/12/11 03:16:32;;;;;;;17.77;2.03;;;;;;;;;;4998613;28;20474;-50
2023/12/11 03:19:01;;;;;;;10.07;1.52;;;;;;;;;;4997358;28;20041;-50
2023/12/11 03:21:29;;;;;;;18.07;2.23;;;;;;;;;;5004254;28;20479;-47
2023/12/11 03:23:57;;;;;;;16.73;1.98;;;;;;;;;;4995840;28;20049;-52
2023/12/11 03:26:26;;;;;;;17.73;2.30;;;;;;;;;;5001857;28;20030;-49
2023/12/11 03:28:54;;;;;;;18.70;2.13;;;;;;;;;;5000549;28;20041;-47
2023/12/11 03:31:22;;;;;;;15.30;1.67;;;;;;;;;;5003197;28;20088;-47
2023/12/11 03:33:50;;;;;;;15.93;2.63;;;;;;;;;;5007802;28;20050;-53
2023/12/11 03:36:19;;;;;;;15.90;2.08;;;;;;;;;;4972995;28;20037;-48
2023/12/11 03:38:47;;;;;;;16.75;2.83;;;;;;;;;;5002420;28;20060;-49
2023/12/11 03:41:15;;;;;;;10.32;2.85;;;;;;;;;;4992431;28;20029;-49
2023/12/11 03:43:45;;;;;;;15.45;2.20;;;;;;;;;;5006533;28;20057;-50
2023/12/11 03:46:16;;;;;;;14.07;1.70;;;;;;;;;;5005140;28;20049;-51
2023/12/11 03:48:43;;;;;;;11.13;1.92;;;;;;;;;;4988203;28;20041;-53
2023/12/11 03:51:11;;;;;;;11.80;1.45;;;;;;;;;;5002316;28;20446;-52
2023/12/11 03:53:40;;;;;;;8.90;1.40;;;;;;;;;;4991146;28;20041;-47
2023/12/11 03:56:09;;;;;;;14.98;1.80;;;;;;;;;;4986970;28;20591;-50
2023/12/11 03:58:36;;;;;;;15.60;1.77;;;;;;;;;;4996139;28;20037;-47
2023/12/11 04:01:04;;;;;;;12.63;1.85;;;;;;;;;;4988769;28;20137;-48
2023/12/11 04:03:32;;;;;;;11.93;2.05;;;;;;;;;;5002026;28;20045;-50
2023/12/11 04:06:00;;;;;;;18.17;2.25;;;;;;;;;;4948923;28;20042;-52
2023/12/11 04:08:28;;;;;;;16.63;2.20;;;;;;;;;;4996111;28;20041;-47
2023/12/11 04:10:57;;;;;;;13.03;1.67;;;;;;;;;;5000152;28;20447;-51
2023/12/11 04:13:24;;;;;;;11.48;1.20;;;;;;;;;;4984368;28;20052;-49
2023/12/11 04:15:53;;;;;;;13.52;2.28;;;;;;;;;;4983706;28;20053;-47
2023/12/11 04:18:20;;;;;;;16.90;2.08;;;;;;;;;;4998176;28;20045;-46
2023/12/11 04:20:48;;;;;;;12.82;1.10;;;;;;;;;;4993021;28;20514;-46
2023/12/11 04:23:16;;;;;;;12.73;1.73;;;;;;;;;;4997615;28;20507;-50
2023/12/11 04:25:44;;;;;;;13.65;1.40;;;;;;;;;;4980930;28;20041;-47
2023/12/11 04:28:13;;;;;;;11.50;1.58;;;;;;;;;;4998193;28;20041;-47
2023/12/11 04:30:41;;;;;;;7.43;1.30;;;;;;;;;;4992437;28;20033;-48
2023/12/11 04:33:09;;;;;;;12.88;1.92;;;;;;;;;;5001760;28;20045;-48
2023/12/11 04:35:36;;;;;;;10.43;1.97;;;;;;;;;;4997287;28;20051;-48
2023/12/11 04:38:04;;;;;;;10.93;1.77;;;;;;;;;;4999949;28;20372;-49
2023/12/11 04:40:32;;;;;;;10.00;1.17;;;;;;;;;;4965118;28;20201;-49
2023/12/11 04:43:00;;;;;;;11.95;1.00;;;;;;;;;;4995779;28;20046;-47
2023/12/11 04:45:34;;;;;;;13.15;1.65;;;;;;;;;;5005717;28;20625;-52
2023/12/11 04:48:02;;;;;;;11.60;1.63;;;;;;;;;;4999602;28;20056;-49
2023/12/11 04:50:31;;;;;;;11.68;1.38;;;;;;;;;;4998030;28;20049;-47
2023/12/11 04:52:58;;;;;;;10.55;1.38;;;;;;;;;;5004502;28;20061;-47
2023/12/11 04:55:27;;;;;;;23.42;2.28;;;;;;;;;;4995156;28;20037;-49
2023/12/11 04:57:55;;;;;;;14.18;1.73;;;;;;;;;;5001936;28;20042;-48
2023/12/11 05:00:22;;;;;;;8.37;1.00;;;;;;;;;;5005522;28;20414;-51
2023/12/11 05:02:52;;;;;;;9.90;0.88;;;;;;;;;;4994008;28;20057;-48
2023/12/11 05:05:19;;;;;;;10.57;1.23;;;;;;;;;;5003097;28;20047;-51
2023/12/11 05:07:47;;;;;;;11.05;1.75;;;;;;;;;;5000099;28;20037;-52
2023/12/11 05:10:15;;;;;;;12.40;1.45;;;;;;;;;;5001230;28;20037;-48
2023/12/11 05:12:46;;;;;;;12.83;2.10;;;;;;;;;;4994103;28;20570;-52
2023/12/11 05:15:14;;;;;;;10.18;1.23;;;;;;;;;;4985989;28;20132;-48
2023/12/11 05:17:41;;;;;;;7.22;1.00;;;;;;;;;;5005379;28;21022;-49
2023/12/11 05:20:18;;;;;;;13.00;1.70;;;;;;;;;;4994025;28;20154;-50
2023/12/11 05:22:46;;;;;;;12.35;1.17;;;;;;;;;;5007487;28;20041;-51
2023/12/11 05:25:13;;;;;;;10.17;1.60;;;;;;;;;;4994961;28;20340;-47
2023/12/11 05:27:41;;;;;;;10.32;1.35;;;;;;;;;;5003361;28;20037;-53
2023/12/11 05:30:10;;;;;;;14.23;1.77;;;;;;;;;;4993849;28;20053;-52
2023/12/11 05:32:38;;;;;;;7.90;1.55;;;;;;;;;;4989052;28;20042;-47
2023/12/11 05:35:08;;;;;;;12.05;1.50;;;;;;;;;;5000014;28;20045;-50
2023/12/11 05:37:39;;;;;;;16.47;2.33;;;;;;;;;;4992003;28;20100;-53
2023/12/11 05:40:08;;;;;;;12.27;1.25;;;;;;;;;;5004640;28;20055;-47
2023/12/11 05:42:50;;;;;;;12.23;1.30;;;;;;;;;;4999876;28;20049;-47
2023/12/11 05:45:18;;;;;;;11.90;1.05;;;;;;;;;;4998302;28;20045;-52
2023/12/11 05:47:46;;;;;;;12.60;1.10;;;;;;;;;;4993548;28;20037;-53
2023/12/11 05:50:14;;;;;;;9.27;0.97;;;;;;;;;;4980819;28;20116;-48
2023/12/11 05:52:44;;;;;;;15.07;1.17;;;;;;;;;;4970203;28;20037;-51
2023/12/11 05:55:12;;;;;;;8.95;1.45;;;;;;;;;;4989471;28;20045;-48
2023/12/11 05:57:40;;;;;;;10.10;1.75;;;;;;;;;;4982875;28;20041;-49
2023/12/11 06:00:11;;;;;;;9.13;1.05;;;;;;;;;;4987007;28;20064;-52
2023/12/11 06:02:40;;;;;;;12.80;2.17;;;;;;;;;;4985128;28;22206;-50
2023/12/11 06:05:09;;;;;;;7.05;1.00;;;;;;;;;;4972975;28;20819;-48
2023/12/11 06:07:37;;;;;;;14.23;2.00;;;;;;;;;;4989518;28;20125;-49
2023/12/11 06:10:07;;;;;;;11.05;1.15;;;;;;;;;;4979248;28;20119;-51
2023/12/11 06:12:35;;;;;;;8.43;1.35;;;;;;;;;;4992874;28;20033;-53
2023/12/11 06:15:03;;;;;;;15.13;1.40;;;;;;;;;;4985426;28;20037;-49
2023/12/11 06:17:31;;;;;;;10.80;1.27;;;;;;;;;;4994911;28;20099;-53
2023/12/11 06:20:00;;;;;;;10.00;2.08;;;;;;;;;;4989577;28;20855;-50
2023/12/11 06:22:28;;;;;;;12.13;1.27;;;;;;;;;;4988545;28;20045;-48
2023/12/11 06:24:56;;;;;;;12.18;2.10;;;;;;;;;;4983657;28;20056;-48
2023/12/11 06:27:27;;;;;;;10.90;1.47;;;;;;;;;;4989507;28;20057;-51
2023/12/11 06:29:55;;;;;;;9.43;1.10;;;;;;;;;;4983557;28;20140;-51
2023/12/11 06:32:23;;;;;;;15.45;1.88;;;;;;;;;;4963934;28;20045;-52
2023/12/11 06:34:51;;;;;;;10.32;1.23;;;;;;;;;;4992751;28;20485;-48
2023/12/11 06:37:19;;;;;;;12.02;1.55;;;;;;;;;;4993025;28;20042;-49
2023/12/11 06:39:48;;;;;;;9.97;1.30;;;;;;;;;;4991549;28;20501;-50
2023/12/11 06:42:16;;;;;;;12.95;1.42;;;;;;;;;;4984558;28;20056;-53
2023/12/11 06:44:45;;;;;;;10.50;1.00;;;;;;;;;;4995139;28;20053;-48
2023/12/11 06:47:13;;;;;;;10.68;1.63;;;;;;;;;;4993813;28;20045;-48
2023/12/11 06:49:42;;;;;;;7.47;1.02;;;;;;;;;;5004614;28;20060;-51
2023/12/11 06:52:10;;;;;;;11.00;1.47;;;;;;;;;;4985983;28;20238;-49
2023/12/11 06:54:38;;;;;;;9.55;1.25;;;;;;;;;;4998204;28;20057;-48
2023/12/11 06:57:06;;;;;;;15.02;1.63;;;;;;;;;;4987461;28;20645;-48
2023/12/11 06:59:35;;;;;;;15.40;1.35;;;;;;;;;;4988223;28;20025;-52
2023/12/11 07:02:06;;;;;;;16.08;1.88;;;;;;;;;;4997209;28;20500;-47
2023/12/11 07:04:35;;;;;;;9.83;1.33;;;;;;;;;;4991876;28;20041;-48
2023/12/11 07:07:03;;;;;;;16.15;1.60;;;;;;;;;;4990503;28;20634;-47
2023/12/11 07:09:31;;;;;;;11.13;1.35;;;;;;;;;;4985950;28;20052;-51
2023/12/11 07:11:59;;;;;;;11.45;1.98;;;;;;;;;;4993919;28;20037;-50
2023/12/11 07:14:28;;;;;;;10.35;1.60;;;;;;;;;;4985789;28;20053;-53
2023/12/11 07:16:55;;;;;;;8.17;2.23;;;;;;;;;;4999537;28;20113;-49
2023/12/11 07:19:24;;;;;;;11.35;1.48;;;;;;;;;;4986882;28;20045;-51
2023/12/11 07:21:52;;;;;;;11.70;1.40;;;;;;;;;;4997924;28;20041;-49
2023/12/11 07:24:21;;;;;;;19.10;1.80;;;;;;;;;;4977371;28;20366;-49
2023/12/11 07:26:48;;;;;;;9.10;1.10;;;;;;;;;;4997077;28;20180;-49
2023/12/11 07:29:16;;;;;;;11.47;1.40;;;;;;;;;;4988497;28;20489;-50
2023/12/11 07:31:44;;;;;;;7.93;1.40;;;;;;;;;;4998743;28;20103;-49
2023/12/11 07:34:12;;;;;;;11.15;1.58;;;;;;;;;;4994032;28;20076;-49
2023/12/11 07:36:41;;;;;;;12.20;1.50;;;;;;;;;;5000095;28;20053;-48
2023/12/11 07:39:10;;;;;;;11.80;1.88;;;;;;;;;;4971442;28;20037;-52
2023/12/11 07:41:37;;;;;;;9.77;1.10;;;;;;;;;;4996495;28;20048;-49
2023/12/11 07:44:05;;;;;;;12.52;1.30;;;;;;;;;;4986063;28;20496;-47
2023/12/11 07:46:33;;;;;;;12.35;1.30;;;;;;;;;;5003803;28;20495;-50
2023/12/11 07:49:00;;;;;;;11.23;1.42;;;;;;;;;;4986408;28;20042;-48
2023/12/11 07:51:28;;;;;;;15.07;1.45;;;;;;;;;;4997553;28;20094;-53
2023/12/11 07:53:58;;;;;;;13.07;1.97;;;;;;;;;;4990137;28;20049;-50
2023/12/11 07:56:27;;;;;;;13.57;1.60;;;;;;;;;;4992740;28;20041;-49
2023/12/11 07:58:54;;;;;;;14.23;1.92;;;;;;;;;;5001380;28;20133;-47
2023/12/11 08:01:22;;;;;;;12.77;2.05;;;;;;;;;;4987135;28;20045;-51
2023/12/11 08:03:50;;;;;;;10.68;1.27;;;;;;;;;;4995639;28;20107;-48
2023/12/11 08:06:18;;;;;;;13.73;1.90;;;;;;;;;;4971648;28;20041;-52
2023/12/11 08:08:47;;;;;;;9.05;0.95;;;;;;;;;;4997667;28;20045;-49
2023/12/11 08:11:18;;;;;;;13.00;1.67;;;;;;;;;;4994972;28;20042;-50
2023/12/11 08:13:46;;;;;;;10.02;1.02;;;;;;;;;;4991937;28;20083;-48
2023/12/11 08:16:15;;;;;;;12.48;1.58;;;;;;;;;;4983878;28;20053;-47
2023/12/11 08:18:44;;;;;;;9.83;1.37;;;;;;;;;;5005372;28;20641;-51
2023/12/11 08:21:12;;;;;;;7.82;1.85;;;;;;;;;;4978715;28;20775;-47
2023/12/11 08:23:42;;;;;;;11.00;1.75;;;;;;;;;;5005119;28;20056;-51
2023/12/11 08:26:10;;;;;;;10.73;1.30;;;;;;;;;;4990889;28;20389;-48
2023/12/11 08:28:39;;;;;;;8.32;1.08;;;;;;;;;;4999383;28;20128;-48
2023/12/11 08:31:12;;;;;;;8.03;1.07;;;;;;;;;;4993540;28;20095;-48
2023/12/11 08:33:41;;;;;;;7.57;0.93;;;;;;;;;;5004297;28;20045;-50
2023/12/11 08:36:10;;;;;;;9.60;1.13;;;;;;;;;;4978452;28;20161;-50
2023/12/11 08:38:38;;;;;;;8.75;0.82;;;;;;;;;;5000600;28;20037;-50
2023/12/11 08:41:07;;;;;;;8.17;1.97;;;;;;;;;;4633667;28;9999779;-50
2023/12/11 08:43:35;;;;;;;8.65;1.25;;;;;;;;;;4987055;28;20049;-47
2023/12/11 08:46:04;;;;;;;8.20;1.00;;;;;;;;;;4985761;28;20114;-48
2023/12/11 08:48:32;;;;;;;9.60;1.40;;;;;;;;;;5006604;28;20042;-49
2023/12/11 08:51:00;;;;;;;9.93;0.98;;;;;;;;;;4979413;28;20065;-49
2023/12/11 08:53:28;;;;;;;8.60;0.83;;;;;;;;;;5001757;28;20095;-50
2023/12/11 08:56:01;;;;;;;8.32;1.17;;;;;;;;;;4986010;28;20485;-48
2023/12/11 08:58:31;;;;;;;11.80;1.25;;;;;;;;;;5010854;28;20041;-54
2023/12/11 09:00:58;;;;;;;12.20;1.30;;;;;;;;;;4988691;28;20041;-50
2023/12/11 09:03:28;;;;;;;8.77;0.90;;;;;;;;;;4987095;28;20041;-52
2023/12/11 09:05:55;;;;;;;7.23;1.00;;;;;;;;;;4642334;28;9999739;-50
2023/12/11 09:08:24;;;;;;;7.28;1.27;;;;;;;;;;4985948;28;20038;-47
2023/12/11 09:10:53;;;;;;;13.43;1.30;;;;;;;;;;5000969;28;20095;-50
2023/12/11 09:13:22;;;;;;;11.43;1.13;;;;;;;;;;4922949;28;21213;-51
2023/12/11 09:15:54;;;;;;;10.25;1.35;;;;;;;;;;4957318;28;20030;-50
2023/12/11 09:18:21;;;;;;;10.73;1.10;;;;;;;;;;4976107;28;20050;-49
2023/12/11 09:20:51;;;;;;;10.07;1.35;;;;;;;;;;4966755;28;20048;-47
2023/12/11 09:23:18;;;;;;;11.30;1.25;;;;;;;;;;4977066;28;20556;-50
2023/12/11 09:25:46;;;;;;;8.45;1.17;;;;;;;;;;4962383;28;20052;-50
2023/12/11 09:28:14;;;;;;;8.30;1.20;;;;;;;;;;4949970;28;20510;-48
2023/12/11 09:30:42;;;;;;;12.57;1.30;;;;;;;;;;4973486;28;20061;-50
2023/12/11 09:33:10;;;;;;;15.52;1.75;;;;;;;;;;4974976;28;20060;-48
2023/12/11 09:35:42;;;;;;;7.88;1.25;;;;;;;;;;4999057;28;20049;-49
2023/12/11 09:38:11;;;;;;;8.18;1.10;;;;;;;;;;4968530;28;20187;-53
2023/12/11 09:40:39;;;;;;;10.18;1.10;;;;;;;;;;4999943;28;20038;-53
2023/12/11 09:43:08;;;;;;;7.93;1.03;;;;;;;;;;4990084;28;20479;-50
2023/12/11 09:45:36;;;;;;;15.38;1.45;;;;;;;;;;5002012;28;20049;-51
2023/12/11 09:48:08;;;;;;;10.80;1.23;;;;;;;;;;5007130;28;20045;-52
2023/12/11 09:50:41;;;;;;;7.07;1.27;;;;;;;;;;4989843;28;21374;-49
2023/12/11 09:53:11;;;;;;;10.57;1.48;;;;;;;;;;4986385;28;20052;-51
2023/12/11 09:55:39;;;;;;;12.07;1.37;;;;;;;;;;4974188;28;20045;-47
2023/12/11 09:58:10;;;;;;;13.35;1.35;;;;;;;;;;4968437;28;20053;-51
2023/12/11 10:00:42;;;;;;;9.30;1.35;;;;;;;;;;4989649;28;20954;-48
2023/12/11 10:03:10;;;;;;;8.60;1.35;;;;;;;;;;4992832;28;20048;-50
2023/12/11 10:05:38;;;;;;;18.35;1.70;;;;;;;;;;4980665;28;20052;-49
2023/12/11 10:08:06;;;;;;;9.87;1.03;;;;;;;;;;4989214;28;20135;-47
2023/12/11 10:10:38;;;;;;;7.22;1.00;;;;;;;;;;4972651;28;20034;-50
2023/12/11 10:13:24;;;;;;;10.50;1.20;;;;;;;;;;4986507;28;20052;-48
2023/12/11 10:15:52;;;;;;;6.88;1.17;;;;;;;;;;4995910;28;20033;-47
2023/12/11 10:18:20;;;;;;;7.45;1.58;;;;;;;;;;4971434;28;20041;-48
2023/12/11 10:20:53;;;;;;;7.70;1.93;;;;;;;;;;4999294;28;20064;-48
2023/12/11 10:23:21;;;;;;;10.00;1.58;;;;;;;;;;4970837;28;20538;-48
2023/12/11 10:25:51;;;;;;;12.73;1.65;;;;;;;;;;4996878;28;20048;-49
2023/12/11 10:28:20;;;;;;;15.93;2.00;;;;;;;;;;4967402;28;20684;-47
2023/12/11 10:30:52;;;;;;;9.63;1.00;;;;;;;;;;5000822;28;20047;-53
2023/12/11 10:33:20;;;;;;;9.67;1.47;;;;;;;;;;4978529;28;20164;-47
2023/12/11 10:35:48;;;;;;;16.05;1.58;;;;;;;;;;4995771;28;20152;-49
2023/12/11 10:38:23;;;;;;;9.75;1.23;;;;;;;;;;4964714;28;20610;-51
2023/12/11 10:40:56;;;;;;;6.90;1.00;;;;;;;;;;4982673;28;20056;-48
2023/12/11 10:43:24;;;;;;;7.55;1.35;;;;;;;;;;4990870;28;20041;-46
2023/12/11 10:45:52;;;;;;;8.13;1.50;;;;;;;;;;4983362;28;20595;-51
2023/12/11 10:48:20;;;;;;;11.77;1.05;;;;;;;;;;5005239;28;20037;-50
2023/12/11 10:50:48;;;;;;;7.65;1.00;;;;;;;;;;4981774;28;20033;-49
2023/12/11 10:53:17;;;;;;;10.05;1.20;;;;;;;;;;4995201;28;20427;-53
2023/12/11 10:55:45;;;;;;;14.57;1.98;;;;;;;;;;4960184;28;20068;-50
2023/12/11 10:58:14;;;;;;;10.30;1.30;;;;;;;;;;4990103;28;20038;-50
2023/12/11 11:00:42;;;;;;;11.13;1.20;;;;;;;;;;4976355;28;20559;-52
2023/12/11 11:03:12;;;;;;;8.73;1.17;;;;;;;;;;4982223;28;20462;-52
2023/12/11 11:05:41;;;;;;;6.60;1.20;;;;;;;;;;4975079;28;20807;-50
2023/12/11 11:08:17;;;;;;;6.97;0.90;;;;;;;;;;4634704;28;9999927;-49
2023/12/11 11:10:48;;;;;;;8.43;1.10;;;;;;;;;;4977913;28;20049;-49
2023/12/11 11:13:19;;;;;;;7.05;0.85;;;;;;;;;;4986710;28;20046;-47
2023/12/11 11:15:51;;;;;;;10.83;1.53;;;;;;;;;;4994777;28;20079;-52
2023/12/11 11:18:19;;;;;;;5.25;0.85;;;;;;;;;;4967646;28;20275;-49
2023/12/11 11:21:01;;;;;;;8.45;1.13;;;;;;;;;;4991183;28;20042;-49
2023/12/11 11:23:32;;;;;;;8.70;1.40;;;;;;;;;;4977772;28;20399;-47
2023/12/11 11:26:00;;;;;;;6.72;0.90;;;;;;;;;;4970811;28;20090;-48
2023/12/11 11:28:38;;;;;;;7.90;0.80;;;;;;;;;;4981638;28;20143;-47
2023/12/11 11:31:06;;;;;;;8.98;1.17;;;;;;;;;;4969630;28;20064;-48
2023/12/11 11:33:51;;;;;;;6.50;0.98;;;;;;;;;;4960510;28;20478;-47
2023/12/11 11:36:28;;;;;;;5.07;0.70;;;;;;;;;;4983922;28;20103;-49
2023/12/11 11:38:57;;;;;;;5.00;1.00;;;;;;;;;;4984018;28;20307;-52
2023/12/11 11:41:26;;;;;;;5.83;0.77;;;;;;;;;;4979150;28;20054;-51
2023/12/11 11:43:59;;;;;;;11.15;0.70;;;;;;;;;;4976274;28;20056;-49
2023/12/11 11:46:28;;;;;;;5.88;1.48;;;;;;;;;;4992218;28;20081;-47
2023/12/11 11:48:55;;;;;;;7.55;0.98;;;;;;;;;;4987399;28;20108;-50
2023/12/11 11:51:23;;;;;;;6.85;1.02;;;;;;;;;;4962623;28;20480;-48
2023/12/11 11:53:57;;;;;;;7.30;1.00;;;;;;;;;;4981617;28;20440;-49
2023/12/11 11:56:25;;;;;;;4.72;0.77;;;;;;;;;;4985133;28;20049;-50
2023/12/11 11:59:05;;;;;;;6.13;1.10;;;;;;;;;;4980526;28;20049;-51
2023/12/11 12:01:34;;;;;;;6.45;1.38;;;;;;;;;;4966372;28;20051;-48
2023/12/11 12:04:03;;;;;;;5.35;0.60;;;;;;;;;;4985917;28;20118;-52
2023/12/11 12:06:31;;;;;;;10.90;0.90;;;;;;;;;;4980049;28;20473;-48
2023/12/11 12:08:59;;;;;;;6.45;0.90;;;;;;;;;;4995190;28;20111;-50
2023/12/11 12:11:29;;;;;;;7.22;1.20;;;;;;;;;;4960825;28;20045;-48
2023/12/11 12:13:57;;;;;;;4.43;0.80;;;;;;;;;;4980808;28;20259;-49
2023/12/11 12:16:31;;;;;;;5.23;0.80;;;;;;;;;;4587157;28;10000077;-52
2023/12/11 12:18:58;;;;;;;6.55;0.90;;;;;;;;;;4995201;28;20423;-50
2023/12/11 12:21:28;;;;;;;7.28;0.82;;;;;;;;;;4961101;28;20041;-49
2023/12/11 12:24:03;;;;;;;8.80;1.48;;;;;;;;;;4959346;28;20049;-47
2023/12/11 12:26:31;;;;;;;6.05;1.15;;;;;;;;;;4982779;28;20049;-50
2023/12/11 12:28:59;;;;;;;9.10;1.00;;;;;;;;;;4984929;28;20053;-52
2023/12/11 12:31:27;;;;;;;5.05;0.90;;;;;;;;;;4991962;28;20046;-48
2023/12/11 12:33:56;;;;;;;5.40;0.55;;;;;;;;;;5000509;28;20610;-47
2023/12/11 12:36:30;;;;;;;6.88;0.90;;;;;;;;;;4979386;28;20333;-48
2023/12/11 12:38:59;;;;;;;6.72;0.60;;;;;;;;;;4960925;28;20041;-49
2023/12/11 12:41:28;;;;;;;9.87;0.70;;;;;;;;;;4991112;28;20505;-51
2023/12/11 12:43:58;;;;;;;7.03;0.80;;;;;;;;;;4976854;28;20053;-53
2023/12/11 12:46:26;;;;;;;10.02;1.15;;;;;;;;;;4977121;28;20052;-49
2023/12/11 12:48:56;;;;;;;5.15;0.70;;;;;;;;;;4994643;28;20045;-49
2023/12/11 12:51:24;;;;;;;7.20;0.93;;;;;;;;;;4636097;28;9999957;-49
2023/12/11 12:53:56;;;;;;;4.65;0.60;;;;;;;;;;4985956;28;20069;-50
2023/12/11 12:56:25;;;;;;;12.98;1.45;;;;;;;;;;4968998;28;20047;-48
2023/12/11 12:58:55;;;;;;;9.45;0.70;;;;;;;;;;4995226;28;20055;-51
2023/12/11 13:01:23;;;;;;;6.77;0.87;;;;;;;;;;4967301;28;20113;-49
2023/12/11 13:03:51;;;;;;;10.77;0.75;;;;;;;;;;4995978;28;20075;-47
2023/12/11 13:06:26;;;;;;;7.88;0.77;;;;;;;;;;4979300;28;20439;-53
2023/12/11 13:08:58;;;;;;;7.57;0.70;;;;;;;;;;4988121;28;20058;-52
2023/12/11 13:11:41;;;;;;;5.43;0.70;;;;;;;;;;4995336;28;20037;-53
2023/12/11 13:14:11;;;;;;;7.90;0.93;;;;;;;;;;4999371;28;20053;-49
2023/12/11 13:16:40;;;;;;;8.38;0.73;;;;;;;;;;4961120;28;20037;-50
2023/12/11 13:19:13;;;;;;;6.15;0.85;;;;;;;;;;4993783;28;20132;-51
2023/12/11 13:21:43;;;;;;;5.35;0.63;;;;;;;;;;4991569;28;20049;-50
2023/12/11 13:24:11;;;;;;;9.13;0.75;;;;;;;;;;5002100;28;20566;-51
2023/12/11 13:26:39;;;;;;;4.80;0.70;;;;;;;;;;4983426;28;20096;-49
2023/12/11 13:29:07;;;;;;;6.72;0.73;;;;;;;;;;4989675;28;20513;-48
2023/12/11 13:31:35;;;;;;;6.13;0.90;;;;;;;;;;4994801;28;20047;-49
2023/12/11 13:34:09;;;;;;;10.40;0.90;;;;;;;;;;4989528;28;20048;-50
2023/12/11 13:36:36;;;;;;;5.70;0.90;;;;;;;;;;4954964;28;20125;-49
2023/12/11 13:39:08;;;;;;;5.70;1.30;;;;;;;;;;5002152;28;20637;-49
2023/12/11 13:41:38;;;;;;;6.22;0.60;;;;;;;;;;4981786;28;20417;-51
2023/12/11 13:44:06;;;;;;;8.32;0.90;;;;;;;;;;4989322;28;20050;-50
2023/12/11 13:46:33;;;;;;;7.70;0.70;;;;;;;;;;4991433;28;20389;-51
2023/12/11 13:49:02;;;;;;;9.65;1.25;;;;;;;;;;4999580;28;20041;-49
2023/12/11 13:51:30;;;;;;;6.47;1.10;;;;;;;;;;4978937;28;20111;-51
2023/12/11 13:53:58;;;;;;;9.18;1.00;;;;;;;;;;4998564;28;20066;-50
2023/12/11 13:56:27;;;;;;;9.20;1.08;;;;;;;;;;4981225;28;20033;-49
2023/12/11 13:58:56;;;;;;;9.27;1.20;;;;;;;;;;4992342;28;20045;-49
2023/12/11 14:01:24;;;;;;;6.35;0.80;;;;;;;;;;4980865;28;20041;-51
2023/12/11 14:03:52;;;;;;;10.13;0.83;;;;;;;;;;4993233;28;20099;-49
2023/12/11 14:06:21;;;;;;;11.77;1.58;;;;;;;;;;5000948;28;20431;-53
2023/12/11 14:08:51;;;;;;;7.80;0.90;;;;;;;;;;4993468;28;20046;-51
2023/12/11 14:11:19;;;;;;;13.52;1.58;;;;;;;;;;4978650;28;20041;-48
2023/12/11 14:13:48;;;;;;;7.63;1.10;;;;;;;;;;4998113;28;20041;-52
2023/12/11 14:16:34;;;;;;;8.30;0.90;;;;;;;;;;4975995;28;20044;-50
2023/12/11 14:19:03;;;;;;;11.50;1.38;;;;;;;;;;4989716;28;20052;-49
2023/12/11 14:21:30;;;;;;;8.02;1.00;;;;;;;;;;4977350;28;20061;-52
2023/12/11 14:23:58;;;;;;;8.68;1.65;;;;;;;;;;5001805;28;20045;-48
2023/12/11 14:26:26;;;;;;;8.13;1.08;;;;;;;;;;4984692;28;20051;-50
2023/12/11 14:28:55;;;;;;;14.40;1.23;;;;;;;;;;4974112;28;20096;-48
2023/12/11 14:31:23;;;;;;;11.48;1.30;;;;;;;;;;4986684;28;20059;-52
2023/12/11 14:33:52;;;;;;;14.63;1.55;;;;;;;;;;4985558;28;20542;-51
2023/12/11 14:36:21;;;;;;;7.72;1.05;;;;;;;;;;4986150;28;20392;-50
2023/12/11 14:38:55;;;;;;;6.70;1.02;;;;;;;;;;4997564;28;20511;-48
2023/12/11 14:41:24;;;;;;;7.87;1.60;;;;;;;;;;4982579;28;20104;-53
2023/12/11 14:43:51;;;;;;;11.55;1.25;;;;;;;;;;5000685;28;20451;-49